sensor_id;sensor_type;location;lat;lon;timestamp;pressure;altitude;pressure_sealevel;temperature;humidity
55263;BME280;41125;48.752;9.168;2023-02-19T00:00:13;97402.56;;;9.15;83.40
55263;BME280;41125;48.752;9.168;2023-02-19T00:00:45;97395.53;;;9.14;83.48
55263;BME280;41125;48.752;9.168;2023-02-19T00:01:19;97396.06;;;9.16;83.54
55263;BME280;41125;48.752;9.168;2023-02-19T00:01:51;97399.84;;;9.15;83.39
55263;BME280;41125;48.752;9.168;2023-02-19T00:02:22;97392.53;;;9.16;83.43
55263;BME280;41125;48.752;9.168;2023-02-19T00:02:53;97391.72;;;9.25;82.66
55263;BME280;41125;48.752;9.168;2023-02-19T00:03:27;97396.59;;;9.28;82.36
55263;BME280;41125;48.752;9.168;2023-02-19T00:04:00;97390.66;;;9.31;82.27
55263;BME280;41125;48.752;9.168;2023-02-19T00:04:32;97395.53;;;9.29;82.22
55263;BME280;41125;48.752;9.168;2023-02-19T00:05:05;97397.16;;;9.25;81.84
55263;BME280;41125;48.752;9.168;2023-02-19T00:05:36;97397.69;;;9.22;82.25
55263;BME280;41125;48.752;9.168;2023-02-19T00:06:11;97391.19;;;9.18;82.27
55263;BME280;41125;48.752;9.168;2023-02-19T00:06:43;97386.31;;;9.15;82.50
55263;BME280;41125;48.752;9.168;2023-02-19T00:07:15;97400.13;;;9.14;82.96
55263;BME280;41125;48.752;9.168;2023-02-19T00:07:46;97396.88;;;9.17;82.86
55263;BME280;41125;48.752;9.168;2023-02-19T00:08:18;97399.31;;;9.18;82.82
55263;BME280;41125;48.752;9.168;2023-02-19T00:08:49;97387.41;;;9.19;82.75
55263;BME280;41125;48.752;9.168;2023-02-19T00:09:21;97394.72;;;9.19;82.75
55263;BME280;41125;48.752;9.168;2023-02-19T00:09:52;97392.00;;;9.19;82.60
55263;BME280;41125;48.752;9.168;2023-02-19T00:10:24;97398.22;;;9.19;82.79
55263;BME280;41125;48.752;9.168;2023-02-19T00:11:05;97382.00;;;9.19;82.27
55263;BME280;41125;48.752;9.168;2023-02-19T00:11:38;97390.38;;;9.18;82.45
55263;BME280;41125;48.752;9.168;2023-02-19T00:12:09;97398.78;;;9.16;82.58
55263;BME280;41125;48.752;9.168;2023-02-19T00:12:41;97387.41;;;9.14;82.68
55263;BME280;41125;48.752;9.168;2023-02-19T00:13:13;97382.25;;;9.13;82.70
55263;BME280;41125;48.752;9.168;2023-02-19T00:13:49;97388.47;;;9.18;82.24
55263;BME280;41125;48.752;9.168;2023-02-19T00:14:20;97392.28;;;9.22;82.20
55263;BME280;41125;48.752;9.168;2023-02-19T00:14:52;97382.53;;;9.26;81.68
55263;BME280;41125;48.752;9.168;2023-02-19T00:15:25;97380.91;;;9.25;81.69
55263;BME280;41125;48.752;9.168;2023-02-19T00:15:57;97385.22;;;9.21;81.71
55263;BME280;41125;48.752;9.168;2023-02-19T00:16:33;97388.47;;;9.23;81.73
55263;BME280;41125;48.752;9.168;2023-02-19T00:17:08;97377.38;;;9.20;81.87
55263;BME280;41125;48.752;9.168;2023-02-19T00:17:41;97380.38;;;9.18;81.74
55263;BME280;41125;48.752;9.168;2023-02-19T00:18:14;97385.22;;;9.21;81.94
55263;BME280;41125;48.752;9.168;2023-02-19T00:18:47;97379.81;;;9.21;81.70
55263;BME280;41125;48.752;9.168;2023-02-19T00:19:19;97377.38;;;9.20;81.31
55263;BME280;41125;48.752;9.168;2023-02-19T00:19:51;97381.44;;;9.17;81.27
55263;BME280;41125;48.752;9.168;2023-02-19T00:20:22;97393.34;;;9.16;81.60
55263;BME280;41125;48.752;9.168;2023-02-19T00:20:55;97381.97;;;9.14;81.84
55263;BME280;41125;48.752;9.168;2023-02-19T00:21:28;97386.31;;;9.15;81.83
55263;BME280;41125;48.752;9.168;2023-02-19T00:21:59;97384.97;;;9.18;81.82
55263;BME280;41125;48.752;9.168;2023-02-19T00:22:31;97387.94;;;9.26;80.64
55263;BME280;41125;48.752;9.168;2023-02-19T00:23:02;97387.37;;;9.39;79.73
55263;BME280;41125;48.752;9.168;2023-02-19T00:23:34;97384.66;;;9.45;79.52
55263;BME280;41125;48.752;9.168;2023-02-19T00:24:08;97383.84;;;9.44;79.46
55263;BME280;41125;48.752;9.168;2023-02-19T00:24:40;97394.69;;;9.44;79.61
55263;BME280;41125;48.752;9.168;2023-02-19T00:25:12;97387.91;;;9.47;79.48
55263;BME280;41125;48.752;9.168;2023-02-19T00:25:43;97385.19;;;9.47;79.45
55263;BME280;41125;48.752;9.168;2023-02-19T00:26:14;97388.44;;;9.44;79.51
55263;BME280;41125;48.752;9.168;2023-02-19T00:26:46;97389.00;;;9.40;79.63
55263;BME280;41125;48.752;9.168;2023-02-19T00:27:17;97389.00;;;9.40;79.78
55263;BME280;41125;48.752;9.168;2023-02-19T00:27:48;97384.38;;;9.41;79.42
55263;BME280;41125;48.752;9.168;2023-02-19T00:28:20;97381.94;;;9.39;79.18
55263;BME280;41125;48.752;9.168;2023-02-19T00:28:53;97384.66;;;9.45;79.29
55263;BME280;41125;48.752;9.168;2023-02-19T00:29:24;97392.25;;;9.43;79.16
55263;BME280;41125;48.752;9.168;2023-02-19T00:29:56;97385.75;;;9.44;78.95
55263;BME280;41125;48.752;9.168;2023-02-19T00:30:28;97373.28;;;9.43;79.17
55263;BME280;41125;48.752;9.168;2023-02-19T00:31:18;97383.84;;;9.44;79.14
55263;BME280;41125;48.752;9.168;2023-02-19T00:31:50;97378.16;;;9.40;79.02
55263;BME280;41125;48.752;9.168;2023-02-19T00:32:21;97381.69;;;9.41;79.18
55263;BME280;41125;48.752;9.168;2023-02-19T00:32:53;97375.44;;;9.40;78.95
55263;BME280;41125;48.752;9.168;2023-02-19T00:33:25;97387.37;;;9.39;79.28
55263;BME280;41125;48.752;9.168;2023-02-19T00:34:01;97379.28;;;9.34;79.00
55263;BME280;41125;48.752;9.168;2023-02-19T00:34:35;97379.78;;;9.36;79.68
55263;BME280;41125;48.752;9.168;2023-02-19T00:35:10;97377.38;;;9.35;79.16
55263;BME280;41125;48.752;9.168;2023-02-19T00:35:41;97380.91;;;9.35;79.59
55263;BME280;41125;48.752;9.168;2023-02-19T00:36:13;97382.78;;;9.35;79.25
55263;BME280;41125;48.752;9.168;2023-02-19T00:36:45;97384.69;;;9.34;79.53
55263;BME280;41125;48.752;9.168;2023-02-19T00:37:16;97382.25;;;9.33;79.50
55263;BME280;41125;48.752;9.168;2023-02-19T00:37:52;97384.13;;;9.37;79.30
55263;BME280;41125;48.752;9.168;2023-02-19T00:38:24;97383.62;;;9.35;79.24
55263;BME280;41125;48.752;9.168;2023-02-19T00:38:55;97384.97;;;9.33;79.20
55263;BME280;41125;48.752;9.168;2023-02-19T00:39:26;97381.44;;;9.32;79.18
55263;BME280;41125;48.752;9.168;2023-02-19T00:39:58;97382.00;;;9.34;79.16
55263;BME280;41125;48.752;9.168;2023-02-19T00:40:29;97385.22;;;9.31;79.36
55263;BME280;41125;48.752;9.168;2023-02-19T00:41:03;97383.62;;;9.30;79.41
55263;BME280;41125;48.752;9.168;2023-02-19T00:41:48;97387.13;;;9.31;79.68
55263;BME280;41125;48.752;9.168;2023-02-19T00:42:20;97390.34;;;9.38;78.98
55263;BME280;41125;48.752;9.168;2023-02-19T00:42:51;97390.62;;;9.41;78.86
55263;BME280;41125;48.752;9.168;2023-02-19T00:43:23;97391.97;;;9.44;78.60
55263;BME280;41125;48.752;9.168;2023-02-19T00:44:05;97381.41;;;9.53;77.84
55263;BME280;41125;48.752;9.168;2023-02-19T00:44:36;97389.53;;;9.58;77.57
55263;BME280;41125;48.752;9.168;2023-02-19T00:45:08;97377.59;;;9.54;77.83
55263;BME280;41125;48.752;9.168;2023-02-19T00:45:39;97381.94;;;9.50;77.97
55263;BME280;41125;48.752;9.168;2023-02-19T00:46:11;97391.69;;;9.46;78.05
55263;BME280;41125;48.752;9.168;2023-02-19T00:46:45;97383.84;;;9.44;78.46
55263;BME280;41125;48.752;9.168;2023-02-19T00:47:19;97396.56;;;9.38;78.47
55263;BME280;41125;48.752;9.168;2023-02-19T00:47:52;97394.94;;;9.37;78.66
55263;BME280;41125;48.752;9.168;2023-02-19T00:48:23;97392.28;;;9.32;79.07
55263;BME280;41125;48.752;9.168;2023-02-19T00:48:56;97394.97;;;9.32;79.25
55263;BME280;41125;48.752;9.168;2023-02-19T00:49:28;97390.66;;;9.31;79.16
55263;BME280;41125;48.752;9.168;2023-02-19T00:49:59;97392.81;;;9.29;79.05
55263;BME280;41125;48.752;9.168;2023-02-19T00:50:30;97398.78;;;9.26;79.50
55263;BME280;41125;48.752;9.168;2023-02-19T00:51:02;97383.34;;;9.22;79.27
55263;BME280;41125;48.752;9.168;2023-02-19T00:51:36;97389.56;;;9.22;79.69
55263;BME280;41125;48.752;9.168;2023-02-19T00:52:08;97398.78;;;9.26;79.60
55263;BME280;41125;48.752;9.168;2023-02-19T00:52:41;97400.41;;;9.32;79.10
55263;BME280;41125;48.752;9.168;2023-02-19T00:53:13;97393.63;;;9.30;79.16
55263;BME280;41125;48.752;9.168;2023-02-19T00:53:44;97388.75;;;9.27;79.37
55263;BME280;41125;48.752;9.168;2023-02-19T00:54:16;97390.09;;;9.24;79.52
55263;BME280;41125;48.752;9.168;2023-02-19T00:54:47;97391.47;;;9.22;79.70
55263;BME280;41125;48.752;9.168;2023-02-19T00:55:20;97389.84;;;9.21;79.75
55263;BME280;41125;48.752;9.168;2023-02-19T00:55:51;97391.47;;;9.32;79.05
55263;BME280;41125;48.752;9.168;2023-02-19T00:56:22;97399.56;;;9.42;78.87
55263;BME280;41125;48.752;9.168;2023-02-19T00:56:54;97399.00;;;9.45;78.49
55263;BME280;41125;48.752;9.168;2023-02-19T00:57:26;97391.69;;;9.40;78.46
55263;BME280;41125;48.752;9.168;2023-02-19T00:57:57;97384.13;;;9.37;78.86
55263;BME280;41125;48.752;9.168;2023-02-19T00:58:30;97393.91;;;9.33;79.07
55263;BME280;41125;48.752;9.168;2023-02-19T00:59:02;97399.84;;;9.35;78.87
55263;BME280;41125;48.752;9.168;2023-02-19T00:59:34;97390.34;;;9.38;79.19
55263;BME280;41125;48.752;9.168;2023-02-19T01:00:07;97392.50;;;9.36;78.75
55263;BME280;41125;48.752;9.168;2023-02-19T01:00:40;97385.22;;;9.31;78.97
55263;BME280;41125;48.752;9.168;2023-02-19T01:01:11;97378.75;;;9.27;79.24
55263;BME280;41125;48.752;9.168;2023-02-19T01:01:43;97383.62;;;9.25;79.40
55263;BME280;41125;48.752;9.168;2023-02-19T01:02:15;97387.94;;;9.26;79.44
55263;BME280;41125;48.752;9.168;2023-02-19T01:02:46;97377.13;;;9.31;79.33
55263;BME280;41125;48.752;9.168;2023-02-19T01:03:17;97387.37;;;9.39;78.68
55263;BME280;41125;48.752;9.168;2023-02-19T01:03:49;97374.09;;;9.38;78.63
55263;BME280;41125;48.752;9.168;2023-02-19T01:04:25;97376.03;;;9.32;79.39
55263;BME280;41125;48.752;9.168;2023-02-19T01:04:56;97380.63;;;9.27;79.28
55263;BME280;41125;48.752;9.168;2023-02-19T01:05:27;97373.88;;;9.24;79.55
55263;BME280;41125;48.752;9.168;2023-02-19T01:05:59;97373.88;;;9.24;79.41
55263;BME280;41125;48.752;9.168;2023-02-19T01:06:30;97374.41;;;9.21;79.64
55263;BME280;41125;48.752;9.168;2023-02-19T01:07:02;97373.06;;;9.29;79.15
55263;BME280;41125;48.752;9.168;2023-02-19T01:07:36;97369.53;;;9.28;79.08
55263;BME280;41125;48.752;9.168;2023-02-19T01:08:08;97371.16;;;9.29;79.18
55263;BME280;41125;48.752;9.168;2023-02-19T01:08:39;97371.13;;;9.39;78.54
55263;BME280;41125;48.752;9.168;2023-02-19T01:09:10;97359.75;;;9.43;78.49
55263;BME280;41125;48.752;9.168;2023-02-19T01:09:42;97364.63;;;9.40;78.50
55263;BME280;41125;48.752;9.168;2023-02-19T01:10:47;97370.63;;;9.32;78.51
55263;BME280;41125;48.752;9.168;2023-02-19T01:11:20;97374.94;;;9.28;79.06
55263;BME280;41125;48.752;9.168;2023-02-19T01:11:51;97369.53;;;9.23;79.26
55263;BME280;41125;48.752;9.168;2023-02-19T01:12:23;97379.28;;;9.19;79.43
55263;BME280;41125;48.752;9.168;2023-02-19T01:12:55;97374.41;;;9.16;79.70
55263;BME280;41125;48.752;9.168;2023-02-19T01:13:27;97372.25;;;9.13;79.93
55263;BME280;41125;48.752;9.168;2023-02-19T01:14:00;97363.03;;;9.14;79.85
55263;BME280;41125;48.752;9.168;2023-02-19T01:14:34;97368.44;;;9.14;80.04
55263;BME280;41125;48.752;9.168;2023-02-19T01:15:07;97370.87;;;9.16;79.87
55263;BME280;41125;48.752;9.168;2023-02-19T01:15:39;97362.75;;;9.21;79.66
55263;BME280;41125;48.752;9.168;2023-02-19T01:16:16;97357.06;;;9.17;79.64
55263;BME280;41125;48.752;9.168;2023-02-19T01:16:48;97361.41;;;9.13;79.98
55263;BME280;41125;48.752;9.168;2023-02-19T01:17:20;97348.41;;;9.10;80.07
55263;BME280;41125;48.752;9.168;2023-02-19T01:17:51;97360.88;;;9.06;80.59
55263;BME280;41125;48.752;9.168;2023-02-19T01:18:22;97356.81;;;9.03;80.60
55263;BME280;41125;48.752;9.168;2023-02-19T01:18:54;97352.75;;;9.01;81.05
55263;BME280;41125;48.752;9.168;2023-02-19T01:20:00;97360.88;;;9.06;80.94
55263;BME280;41125;48.752;9.168;2023-02-19T01:20:31;97346.25;;;9.12;80.38
55263;BME280;41125;48.752;9.168;2023-02-19T01:21:16;97348.97;;;9.17;79.89
55263;BME280;41125;48.752;9.168;2023-02-19T01:21:48;97363.56;;;9.21;79.39
55263;BME280;41125;48.752;9.168;2023-02-19T01:22:19;97358.97;;;9.22;79.48
55263;BME280;41125;48.752;9.168;2023-02-19T01:22:51;97366.00;;;9.23;79.24
55263;BME280;41125;48.752;9.168;2023-02-19T01:23:25;97360.31;;;9.19;79.68
55263;BME280;41125;48.752;9.168;2023-02-19T01:23:57;97355.44;;;9.26;78.79
55263;BME280;41125;48.752;9.168;2023-02-19T01:24:29;97354.91;;;9.29;78.60
55263;BME280;41125;48.752;9.168;2023-02-19T01:25:00;97355.41;;;9.36;78.18
55263;BME280;41125;48.752;9.168;2023-02-19T01:25:32;97353.78;;;9.40;78.00
55263;BME280;41125;48.752;9.168;2023-02-19T01:26:07;97353.78;;;9.40;78.05
55263;BME280;41125;48.752;9.168;2023-02-19T01:26:39;97350.00;;;9.36;78.18
55263;BME280;41125;48.752;9.168;2023-02-19T01:27:10;97354.91;;;9.34;78.31
55263;BME280;41125;48.752;9.168;2023-02-19T01:27:42;97350.00;;;9.36;78.27
55263;BME280;41125;48.752;9.168;2023-02-19T01:28:13;97351.06;;;9.40;78.05
55263;BME280;41125;48.752;9.168;2023-02-19T01:28:45;97351.63;;;9.37;78.04
55263;BME280;41125;48.752;9.168;2023-02-19T01:29:18;97347.81;;;9.38;77.93
55263;BME280;41125;48.752;9.168;2023-02-19T01:29:49;97357.63;;;9.34;77.80
55263;BME280;41125;48.752;9.168;2023-02-19T01:30:20;97352.19;;;9.34;78.20
55263;BME280;41125;48.752;9.168;2023-02-19T01:30:55;97342.72;;;9.32;78.13
55263;BME280;41125;48.752;9.168;2023-02-19T01:31:28;97351.13;;;9.30;78.28
55263;BME280;41125;48.752;9.168;2023-02-19T01:32:01;97357.06;;;9.27;78.32
55263;BME280;41125;48.752;9.168;2023-02-19T01:32:32;97348.41;;;9.25;78.41
55263;BME280;41125;48.752;9.168;2023-02-19T01:33:05;97350.03;;;9.26;78.62
55263;BME280;41125;48.752;9.168;2023-02-19T01:33:37;97348.94;;;9.32;77.96
55263;BME280;41125;48.752;9.168;2023-02-19T01:34:10;97335.13;;;9.34;77.85
55263;BME280;41125;48.752;9.168;2023-02-19T01:34:44;97340.81;;;9.27;78.05
55263;BME280;41125;48.752;9.168;2023-02-19T01:35:16;97338.38;;;9.31;78.15
55263;BME280;41125;48.752;9.168;2023-02-19T01:35:47;97339.47;;;9.30;78.17
55263;BME280;41125;48.752;9.168;2023-02-19T01:36:19;97343.81;;;9.26;78.02
55263;BME280;41125;48.752;9.168;2023-02-19T01:36:51;97345.72;;;9.20;78.19
55263;BME280;41125;48.752;9.168;2023-02-19T01:37:22;97350.84;;;9.17;78.65
55263;BME280;41125;48.752;9.168;2023-02-19T01:37:54;97345.97;;;9.14;79.11
55263;BME280;41125;48.752;9.168;2023-02-19T01:38:25;97344.09;;;9.09;79.36
55263;BME280;41125;48.752;9.168;2023-02-19T01:39:02;97349.78;;;9.13;79.17
55263;BME280;41125;48.752;9.168;2023-02-19T01:39:35;97349.22;;;9.16;78.94
55263;BME280;41125;48.752;9.168;2023-02-19T01:40:07;97339.75;;;9.13;79.14
55263;BME280;41125;48.752;9.168;2023-02-19T01:40:39;97348.97;;;9.12;79.17
55263;BME280;41125;48.752;9.168;2023-02-19T01:41:14;97358.16;;;9.11;79.60
55263;BME280;41125;48.752;9.168;2023-02-19T01:41:46;97345.16;;;9.13;79.36
55263;BME280;41125;48.752;9.168;2023-02-19T01:42:18;97347.87;;;9.13;79.16
55263;BME280;41125;48.752;9.168;2023-02-19T01:42:50;97350.59;;;9.13;79.47
55263;BME280;41125;48.752;9.168;2023-02-19T01:43:21;97349.22;;;9.16;79.19
55263;BME280;41125;48.752;9.168;2023-02-19T01:45:23;97342.19;;;9.25;78.75
55263;BME280;41125;48.752;9.168;2023-02-19T01:45:55;97344.62;;;9.26;78.79
55263;BME280;41125;48.752;9.168;2023-02-19T01:46:40;97334.31;;;9.33;78.40
55263;BME280;41125;48.752;9.168;2023-02-19T01:47:12;97334.56;;;9.37;78.15
55263;BME280;41125;48.752;9.168;2023-02-19T01:47:47;97346.19;;;9.37;78.02
55263;BME280;41125;48.752;9.168;2023-02-19T01:48:39;97340.56;;;9.34;78.21
55263;BME280;41125;48.752;9.168;2023-02-19T01:49:20;97346.78;;;9.29;78.28
55263;BME280;41125;48.752;9.168;2023-02-19T01:49:56;97347.59;;;9.25;78.78
55263;BME280;41125;48.752;9.168;2023-02-19T01:50:29;97346.78;;;9.19;78.85
55263;BME280;41125;48.752;9.168;2023-02-19T01:51:09;97346.78;;;9.14;79.18
55263;BME280;41125;48.752;9.168;2023-02-19T01:51:45;97346.25;;;9.17;79.16
55263;BME280;41125;48.752;9.168;2023-02-19T01:52:23;97345.97;;;9.19;79.06
55263;BME280;41125;48.752;9.168;2023-02-19T01:53:02;97350.03;;;9.16;79.45
55263;BME280;41125;48.752;9.168;2023-02-19T01:53:42;97351.66;;;9.12;79.31
55263;BME280;41125;48.752;9.168;2023-02-19T01:54:20;97345.72;;;9.15;79.46
55263;BME280;41125;48.752;9.168;2023-02-19T01:54:53;97344.34;;;9.18;79.13
55263;BME280;41125;48.752;9.168;2023-02-19T01:55:25;97358.44;;;9.25;78.49
55263;BME280;41125;48.752;9.168;2023-02-19T01:55:58;97353.28;;;9.28;78.24
55263;BME280;41125;48.752;9.168;2023-02-19T01:56:32;97356.81;;;9.24;78.31
55263;BME280;41125;48.752;9.168;2023-02-19T01:57:07;97357.88;;;9.18;78.91
55263;BME280;41125;48.752;9.168;2023-02-19T01:57:44;97353.28;;;9.18;78.77
55263;BME280;41125;48.752;9.168;2023-02-19T01:58:18;97349.22;;;9.16;79.15
55263;BME280;41125;48.752;9.168;2023-02-19T01:58:50;97348.41;;;9.15;78.99
55263;BME280;41125;48.752;9.168;2023-02-19T01:59:22;97340.03;;;9.12;79.23
55263;BME280;41125;48.752;9.168;2023-02-19T02:00:02;97348.41;;;9.10;79.23
55263;BME280;41125;48.752;9.168;2023-02-19T02:00:36;97355.44;;;9.16;79.12
55263;BME280;41125;48.752;9.168;2023-02-19T02:01:08;97342.47;;;9.18;78.89
55263;BME280;41125;48.752;9.168;2023-02-19T02:01:40;97340.03;;;9.17;78.92
55263;BME280;41125;48.752;9.168;2023-02-19T02:02:12;97345.97;;;9.14;78.76
55263;BME280;41125;48.752;9.168;2023-02-19T02:02:49;97341.37;;;9.09;79.14
55263;BME280;41125;48.752;9.168;2023-02-19T02:03:22;97339.75;;;9.08;79.26
55263;BME280;41125;48.752;9.168;2023-02-19T02:03:53;97334.06;;;9.10;79.38
55263;BME280;41125;48.752;9.168;2023-02-19T02:04:26;97347.34;;;9.16;78.85
55263;BME280;41125;48.752;9.168;2023-02-19T02:04:58;97328.91;;;9.23;78.67
55263;BME280;41125;48.752;9.168;2023-02-19T02:05:44;97335.97;;;9.24;78.61
55263;BME280;41125;48.752;9.168;2023-02-19T02:06:30;97344.09;;;9.14;79.37
55263;BME280;41125;48.752;9.168;2023-02-19T02:07:05;97338.66;;;9.09;78.95
55263;BME280;41125;48.752;9.168;2023-02-19T02:07:58;97333.78;;;9.06;79.45
55263;BME280;41125;48.752;9.168;2023-02-19T02:08:52;97333.78;;;9.06;79.45
55263;BME280;41125;48.752;9.168;2023-02-19T02:09:43;97345.44;;;9.12;79.40
55263;BME280;41125;48.752;9.168;2023-02-19T02:10:32;97328.66;;;9.20;78.70
55263;BME280;41125;48.752;9.168;2023-02-19T02:11:04;97334.88;;;9.20;78.48
55263;BME280;41125;48.752;9.168;2023-02-19T02:11:36;97335.69;;;9.21;78.68
55263;BME280;41125;48.752;9.168;2023-02-19T02:12:09;97343.53;;;9.22;78.72
55263;BME280;41125;48.752;9.168;2023-02-19T02:12:40;97347.87;;;9.18;78.50
55263;BME280;41125;48.752;9.168;2023-02-19T02:13:12;97342.19;;;9.15;78.83
55263;BME280;41125;48.752;9.168;2023-02-19T02:13:45;97350.31;;;9.15;78.94
55263;BME280;41125;48.752;9.168;2023-02-19T02:14:23;97338.12;;;9.17;78.56
55263;BME280;41125;48.752;9.168;2023-02-19T02:14:55;97333.78;;;9.16;78.81
55263;BME280;41125;48.752;9.168;2023-02-19T02:15:44;97343.53;;;9.12;79.02
55263;BME280;41125;48.752;9.168;2023-02-19T02:16:54;97339.22;;;9.06;79.45
55263;BME280;41125;48.752;9.168;2023-02-19T02:17:50;97344.62;;;9.06;79.50
55263;BME280;41125;48.752;9.168;2023-02-19T02:18:35;97340.56;;;9.14;79.14
55263;BME280;41125;48.752;9.168;2023-02-19T02:20:05;97341.91;;;9.21;78.63
55263;BME280;41125;48.752;9.168;2023-02-19T02:21:06;97336.22;;;9.23;78.19
55263;BME280;41125;48.752;9.168;2023-02-19T02:23:28;97338.12;;;9.22;78.54
55263;BME280;41125;48.752;9.168;2023-02-19T02:24:40;97327.28;;;9.17;78.70
55263;BME280;41125;48.752;9.168;2023-02-19T02:29:29;97327.31;;;9.02;80.86
55263;BME280;41125;48.752;9.168;2023-02-19T02:30:33;97325.16;;;8.94;81.26
55263;BME280;41125;48.752;9.168;2023-02-19T02:31:18;97314.88;;;8.91;82.07
55263;BME280;41125;48.752;9.168;2023-02-19T02:32:01;97327.88;;;8.89;82.07
55263;BME280;41125;48.752;9.168;2023-02-19T02:33:12;97311.09;;;8.87;82.60
55263;BME280;41125;48.752;9.168;2023-02-19T02:34:56;97315.69;;;8.71;84.29
55263;BME280;41125;48.752;9.168;2023-02-19T02:35:42;97307.03;;;8.69;84.13
55263;BME280;41125;48.752;9.168;2023-02-19T02:36:28;97321.91;;;8.66;84.39
55263;BME280;41125;48.752;9.168;2023-02-19T02:37:15;97314.31;;;8.73;83.50
55263;BME280;41125;48.752;9.168;2023-02-19T02:37:47;97315.94;;;8.74;83.54
55263;BME280;41125;48.752;9.168;2023-02-19T02:38:24;97312.97;;;8.76;83.81
55263;BME280;41125;48.752;9.168;2023-02-19T02:38:59;97316.75;;;8.70;84.47
55263;BME280;41125;48.752;9.168;2023-02-19T02:39:33;97314.59;;;8.67;84.27
55263;BME280;41125;48.752;9.168;2023-02-19T02:40:08;97321.38;;;8.64;84.28
55263;BME280;41125;48.752;9.168;2023-02-19T02:40:42;97317.06;;;8.63;84.39
55263;BME280;41125;48.752;9.168;2023-02-19T02:41:15;97314.34;;;8.63;84.47
55263;BME280;41125;48.752;9.168;2023-02-19T02:41:55;97312.16;;;8.70;83.66
55263;BME280;41125;48.752;9.168;2023-02-19T02:42:44;97307.84;;;8.80;83.23
55263;BME280;41125;48.752;9.168;2023-02-19T02:43:16;97305.13;;;8.74;83.60
55263;BME280;41125;48.752;9.168;2023-02-19T02:43:48;97316.75;;;8.70;83.44
55263;BME280;41125;48.752;9.168;2023-02-19T02:44:19;97310.00;;;8.67;83.91
55263;BME280;41125;48.752;9.168;2023-02-19T02:44:50;97308.91;;;8.68;83.90
55263;BME280;41125;48.752;9.168;2023-02-19T02:45:40;97303.50;;;8.73;83.42
55263;BME280;41125;48.752;9.168;2023-02-19T02:46:14;97298.09;;;8.73;83.47
55263;BME280;41125;48.752;9.168;2023-02-19T02:46:49;97302.16;;;8.71;83.81
55263;BME280;41125;48.752;9.168;2023-02-19T02:47:21;97295.13;;;8.70;83.62
55263;BME280;41125;48.752;9.168;2023-02-19T02:49:26;97294.31;;;8.74;82.95
55263;BME280;41125;48.752;9.168;2023-02-19T02:50:01;97297.28;;;8.73;82.87
55263;BME280;41125;48.752;9.168;2023-02-19T02:51:50;97305.16;;;8.64;83.51
55263;BME280;41125;48.752;9.168;2023-02-19T02:52:22;97314.88;;;8.60;83.80
55263;BME280;41125;48.752;9.168;2023-02-19T02:53:19;97309.47;;;8.60;84.16
55263;BME280;41125;48.752;9.168;2023-02-19T02:54:21;97306.75;;;8.70;83.27
55263;BME280;41125;48.752;9.168;2023-02-19T02:55:12;97307.56;;;8.71;83.26
55263;BME280;41125;48.752;9.168;2023-02-19T02:55:46;97307.03;;;8.74;83.00
55263;BME280;41125;48.752;9.168;2023-02-19T02:56:20;97306.22;;;8.79;82.73
55263;BME280;41125;48.752;9.168;2023-02-19T02:56:54;97300.25;;;8.82;82.32
55263;BME280;41125;48.752;9.168;2023-02-19T02:57:26;97304.06;;;8.86;81.90
55263;BME280;41125;48.752;9.168;2023-02-19T02:57:58;97307.31;;;8.93;81.57
55263;BME280;41125;48.752;9.168;2023-02-19T02:58:30;97299.44;;;8.86;81.76
55263;BME280;41125;48.752;9.168;2023-02-19T02:59:05;97304.88;;;8.81;82.01
55263;BME280;41125;48.752;9.168;2023-02-19T02:59:39;97308.09;;;8.73;82.24
55263;BME280;41125;48.752;9.168;2023-02-19T03:00:15;97307.84;;;8.74;82.49
55263;BME280;41125;48.752;9.168;2023-02-19T03:00:55;97295.37;;;8.68;82.99
55263;BME280;41125;48.752;9.168;2023-02-19T03:01:50;97310.03;;;8.62;83.38
55263;BME280;41125;48.752;9.168;2023-02-19T03:02:42;97311.37;;;8.65;83.52
55263;BME280;41125;48.752;9.168;2023-02-19T03:03:16;97306.75;;;8.76;82.72
55263;BME280;41125;48.752;9.168;2023-02-19T03:04:05;97315.97;;;8.80;82.46
55263;BME280;41125;48.752;9.168;2023-02-19T03:05:19;97314.06;;;8.80;82.36
55263;BME280;41125;48.752;9.168;2023-02-19T03:06:12;97311.09;;;8.82;81.89
55263;BME280;41125;48.752;9.168;2023-02-19T03:06:49;97308.38;;;8.82;82.24
55263;BME280;41125;48.752;9.168;2023-02-19T03:07:25;97308.91;;;8.79;82.23
55263;BME280;41125;48.752;9.168;2023-02-19T03:08:10;97294.31;;;8.74;82.50
55263;BME280;41125;48.752;9.168;2023-02-19T03:09:01;97299.72;;;8.69;82.64
55263;BME280;41125;48.752;9.168;2023-02-19T03:09:41;97305.16;;;8.64;82.93
55263;BME280;41125;48.752;9.168;2023-02-19T03:10:17;97299.72;;;8.59;83.33
55263;BME280;41125;48.752;9.168;2023-02-19T03:10:56;97308.94;;;8.58;83.69
55263;BME280;41125;48.752;9.168;2023-02-19T03:11:51;97300.53;;;8.60;83.87
55263;BME280;41125;48.752;9.168;2023-02-19T03:12:44;97308.38;;;8.56;84.32
55263;BME280;41125;48.752;9.168;2023-02-19T03:13:35;97306.78;;;8.60;84.22
55263;BME280;41125;48.752;9.168;2023-02-19T03:14:40;97302.44;;;8.64;83.91
55263;BME280;41125;48.752;9.168;2023-02-19T03:15:35;97302.16;;;8.51;86.13
55263;BME280;41125;48.752;9.168;2023-02-19T03:16:30;97304.59;;;8.47;86.21
55263;BME280;41125;48.752;9.168;2023-02-19T03:17:28;97298.62;;;8.50;85.84
55263;BME280;41125;48.752;9.168;2023-02-19T03:18:22;97302.16;;;8.56;86.24
55263;BME280;41125;48.752;9.168;2023-02-19T03:19:14;97297.00;;;8.49;86.75
55263;BME280;41125;48.752;9.168;2023-02-19T03:19:54;97299.19;;;8.52;86.32
55263;BME280;41125;48.752;9.168;2023-02-19T03:20:29;97303.50;;;8.53;86.20
55263;BME280;41125;48.752;9.168;2023-02-19T03:21:03;97303.25;;;8.60;86.56
55263;BME280;41125;48.752;9.168;2023-02-19T03:21:38;97290.81;;;8.59;86.06
55263;BME280;41125;48.752;9.168;2023-02-19T03:22:22;97299.19;;;8.57;86.45
55263;BME280;41125;48.752;9.168;2023-02-19T03:22:56;97291.06;;;8.52;87.10
55263;BME280;41125;48.752;9.168;2023-02-19T03:23:32;97305.66;;;8.46;87.31
55263;BME280;41125;48.752;9.168;2023-02-19T03:24:31;97300.78;;;8.38;87.50
55263;BME280;41125;48.752;9.168;2023-02-19T03:25:28;97298.59;;;8.30;89.15
55263;BME280;41125;48.752;9.168;2023-02-19T03:26:20;97300.75;;;8.23;90.07
55263;BME280;41125;48.752;9.168;2023-02-19T03:26:52;97302.91;;;8.26;89.27